Time;durP1;ratioP1;P1;durP2;ratioP2;P2;SDS_P1;SDS_P2;PMS_P1;PMS_P2;Temp;Humidity;BMP_temperature;BMP_pressure;BME280_temperature;BME280_humidity;BME280_pressure;Samples;Min_cycle;Max_cycle;Signal;HPM_P1;HPM_P2
2021/11/22 00:02:21;;;;;;;;;12.33;9.00;;;;;;;;5012976;28;45481;-75
2021/11/22 00:04:46;;;;;;;;;10.25;8.75;;;;;;;;5001897;28;45520;-74
2021/11/22 00:07:12;;;;;;;;;11.33;9.67;;;;;;;;5009940;28;45530;-74
2021/11/22 00:09:37;;;;;;;;;12.25;9.50;;;;;;;;5011304;28;45420;-74
2021/11/22 00:12:03;;;;;;;;;16.00;9.00;;;;;;;;5005716;28;45580;-74
2021/11/22 00:14:28;;;;;;;;;12.00;6.00;;;;;;;;5014067;28;45506;-74
2021/11/22 00:16:53;;;;;;;;;10.00;6.33;;;;;;;;5007723;28;45616;-75
2021/11/22 00:19:19;;;;;;;;;10.00;7.00;;;;;;;;5004560;28;45813;-74
2021/11/22 00:21:44;;;;;;;;;13.00;9.33;;;;;;;;5000152;28;45440;-74
2021/11/22 00:24:09;;;;;;;;;10.33;7.67;;;;;;;;5011894;28;52457;-74
2021/11/22 00:26:34;;;;;;;;;10.00;10.00;;;;;;;;5009506;28;45594;-73
2021/11/22 00:28:59;;;;;;;;;7.33;6.33;;;;;;;;5011769;28;45746;-74
2021/11/22 00:31:24;;;;;;;;;12.00;6.33;;;;;;;;5009620;28;45461;-73
2021/11/22 00:33:51;;;;;;;;;12.33;5.33;;;;;;;;5009556;28;45515;-74
2021/11/22 00:36:16;;;;;;;;;9.00;5.50;;;;;;;;5005667;28;45537;-74
2021/11/22 00:38:41;;;;;;;;;11.00;7.33;;;;;;;;5005477;28;45534;-74
2021/11/22 00:41:07;;;;;;;;;6.00;5.00;;;;;;;;5011998;28;45591;-74
2021/11/22 00:43:32;;;;;;;;;10.00;6.25;;;;;;;;5010533;28;45467;-74
2021/11/22 00:45:58;;;;;;;;;9.50;7.00;;;;;;;;5008565;28;45324;-74
2021/11/22 00:48:23;;;;;;;;;7.67;6.33;;;;;;;;5002053;28;45284;-74
2021/11/22 00:50:50;;;;;;;;;10.33;8.33;;;;;;;;5000850;28;46475;-74
2021/11/22 00:53:15;;;;;;;;;9.00;6.25;;;;;;;;5002635;28;45469;-74
2021/11/22 00:55:40;;;;;;;;;7.33;7.00;;;;;;;;5006023;28;45645;-74
2021/11/22 00:58:05;;;;;;;;;8.33;5.67;;;;;;;;5010042;28;46423;-74
2021/11/22 01:00:31;;;;;;;;;7.00;6.33;;;;;;;;5007540;28;45509;-74
2021/11/22 01:02:56;;;;;;;;;6.00;6.00;;;;;;;;5008106;28;45821;-74
2021/11/22 01:05:21;;;;;;;;;7.33;6.00;;;;;;;;5009894;28;45450;-74
2021/11/22 01:07:46;;;;;;;;;13.67;9.00;;;;;;;;5010918;28;45617;-73
2021/11/22 01:10:12;;;;;;;;;17.00;8.33;;;;;;;;5010064;28;47596;-75
2021/11/22 01:12:38;;;;;;;;;13.75;7.00;;;;;;;;4991663;28;45599;-74
2021/11/22 01:15:06;;;;;;;;;11.00;9.00;;;;;;;;5010189;28;45337;-75
2021/11/22 01:17:31;;;;;;;;;10.50;5.50;;;;;;;;5012385;28;45405;-75
2021/11/22 01:19:56;;;;;;;;;13.00;8.67;;;;;;;;5002495;28;45518;-75
2021/11/22 01:22:22;;;;;;;;;11.67;10.00;;;;;;;;5004946;28;45746;-75
2021/11/22 01:24:48;;;;;;;;;10.75;8.00;;;;;;;;5008226;28;45508;-75
2021/11/22 01:27:13;;;;;;;;;10.00;8.33;;;;;;;;5009204;28;45439;-73
2021/11/22 01:29:38;;;;;;;;;6.25;6.25;;;;;;;;5007070;28;45465;-73
2021/11/22 01:32:03;;;;;;;;;6.67;6.00;;;;;;;;5005046;28;45487;-74
2021/11/22 01:34:29;;;;;;;;;6.75;5.75;;;;;;;;5007662;28;45540;-74
2021/11/22 01:36:54;;;;;;;;;11.00;9.00;;;;;;;;5012366;28;46251;-75
2021/11/22 01:39:19;;;;;;;;;10.50;5.25;;;;;;;;5013373;28;45408;-75
2021/11/22 01:41:44;;;;;;;;;9.00;6.67;;;;;;;;5004485;28;45423;-75
2021/11/22 01:44:10;;;;;;;;;7.67;6.00;;;;;;;;5011871;28;45578;-75
2021/11/22 01:46:35;;;;;;;;;10.67;4.67;;;;;;;;5011869;28;45317;-75
2021/11/22 01:49:03;;;;;;;;;7.00;5.00;;;;;;;;5012941;28;45728;-75
2021/11/22 01:51:28;;;;;;;;;6.50;5.25;;;;;;;;5009880;28;46878;-75
2021/11/22 01:53:53;;;;;;;;;5.33;5.00;;;;;;;;5013762;28;45359;-73
2021/11/22 01:56:20;;;;;;;;;10.50;7.00;;;;;;;;5006247;28;46312;-75
2021/11/22 01:58:46;;;;;;;;;11.50;6.00;;;;;;;;5011208;28;45739;-75
2021/11/22 02:01:11;;;;;;;;;13.75;7.25;;;;;;;;5008400;28;45392;-75
2021/11/22 02:03:36;;;;;;;;;9.00;5.33;;;;;;;;5002454;28;45503;-75
2021/11/22 02:06:02;;;;;;;;;8.33;6.00;;;;;;;;5011895;28;46119;-74
2021/11/22 02:08:27;;;;;;;;;6.00;5.00;;;;;;;;5015062;28;45462;-75
2021/11/22 02:10:52;;;;;;;;;7.67;4.33;;;;;;;;5007605;28;45516;-75
2021/11/22 02:13:18;;;;;;;;;7.00;5.00;;;;;;;;5004795;28;45407;-74
2021/11/22 02:15:43;;;;;;;;;7.25;7.25;;;;;;;;5005647;28;45883;-75
2021/11/22 02:18:09;;;;;;;;;7.75;5.25;;;;;;;;5007953;28;45503;-73
2021/11/22 02:20:35;;;;;;;;;8.25;6.00;;;;;;;;5012568;28;45451;-73
2021/11/22 02:23:02;;;;;;;;;12.25;7.50;;;;;;;;5004362;28;45742;-73
2021/11/22 02:25:29;;;;;;;;;8.00;5.50;;;;;;;;5006805;28;46498;-73
2021/11/22 02:27:54;;;;;;;;;11.25;6.75;;;;;;;;5007989;28;45522;-73
2021/11/22 02:30:29;;;;;;;;;5.25;5.25;;;;;;;;4983299;28;45389;-73
2021/11/22 02:32:54;;;;;;;;;7.50;7.25;;;;;;;;5012115;28;45359;-73
2021/11/22 02:35:20;;;;;;;;;8.00;6.00;;;;;;;;5008422;28;45529;-73
2021/11/22 02:37:45;;;;;;;;;7.00;6.50;;;;;;;;5013063;28;45478;-73
2021/11/22 02:40:11;;;;;;;;;12.75;7.25;;;;;;;;5009079;28;45426;-73
2021/11/22 02:42:40;;;;;;;;;10.50;6.00;;;;;;;;5011809;28;45386;-73
2021/11/22 02:45:06;;;;;;;;;8.50;5.50;;;;;;;;5011974;28;45408;-73
2021/11/22 02:47:31;;;;;;;;;12.00;5.75;;;;;;;;5003783;28;45608;-73
2021/11/22 02:49:57;;;;;;;;;6.00;4.00;;;;;;;;5010780;28;45502;-73
2021/11/22 02:52:22;;;;;;;;;9.67;6.00;;;;;;;;5008471;28;45522;-73
2021/11/22 02:54:47;;;;;;;;;10.00;6.00;;;;;;;;5001292;28;46310;-73
2021/11/22 02:57:13;;;;;;;;;9.00;5.67;;;;;;;;5006993;28;45380;-73
2021/11/22 02:59:40;;;;;;;;;6.50;5.25;;;;;;;;5015179;28;45474;-73
2021/11/22 03:02:09;;;;;;;;;5.25;5.25;;;;;;;;5007244;28;45402;-73
2021/11/22 03:04:35;;;;;;;;;9.00;6.50;;;;;;;;5011112;28;45564;-73
2021/11/22 03:07:01;;;;;;;;;6.00;6.00;;;;;;;;5007736;28;46045;-73
2021/11/22 03:09:26;;;;;;;;;7.33;5.33;;;;;;;;5011605;28;45493;-73
2021/11/22 03:11:52;;;;;;;;;6.00;2.67;;;;;;;;5007927;28;45727;-73
2021/11/22 03:14:17;;;;;;;;;7.25;6.25;;;;;;;;5013797;28;46354;-73
2021/11/22 03:16:42;;;;;;;;;9.00;5.00;;;;;;;;5009940;28;45817;-73
2021/11/22 03:19:08;;;;;;;;;6.00;6.00;;;;;;;;5008510;28;45541;-73
2021/11/22 03:21:33;;;;;;;;;8.00;6.00;;;;;;;;4999877;28;45528;-73
2021/11/22 03:23:59;;;;;;;;;5.25;4.75;;;;;;;;5007886;28;45752;-73
2021/11/22 03:26:24;;;;;;;;;7.25;7.25;;;;;;;;5001808;28;45308;-73
2021/11/22 03:28:49;;;;;;;;;6.67;5.00;;;;;;;;5007186;28;45522;-74
2021/11/22 03:31:15;;;;;;;;;11.33;9.33;;;;;;;;5010444;28;45352;-73
2021/11/22 03:33:41;;;;;;;;;8.00;4.50;;;;;;;;4999920;28;46048;-73
2021/11/22 03:36:07;;;;;;;;;13.75;6.00;;;;;;;;5007461;28;45349;-73
2021/11/22 03:38:32;;;;;;;;;10.00;8.25;;;;;;;;5005979;28;45505;-73
2021/11/22 03:40:59;;;;;;;;;13.50;8.50;;;;;;;;4999793;28;45470;-73
2021/11/22 03:43:32;;;;;;;;;11.75;5.00;;;;;;;;5009682;28;46009;-73
2021/11/22 03:45:58;;;;;;;;;9.75;5.25;;;;;;;;5005082;28;45566;-73
2021/11/22 03:48:23;;;;;;;;;10.75;6.50;;;;;;;;5007003;28;45502;-73
2021/11/22 03:50:48;;;;;;;;;6.33;6.33;;;;;;;;5005155;28;45538;-73
2021/11/22 03:53:15;;;;;;;;;8.33;7.33;;;;;;;;4999073;28;46326;-73
2021/11/22 03:55:40;;;;;;;;;8.25;7.00;;;;;;;;5001837;28;46027;-73
2021/11/22 03:58:06;;;;;;;;;7.33;6.00;;;;;;;;5011691;28;45509;-73
2021/11/22 04:00:31;;;;;;;;;9.00;9.00;;;;;;;;5011525;28;45337;-73
2021/11/22 04:02:56;;;;;;;;;8.50;7.75;;;;;;;;4998319;28;45600;-73
2021/11/22 04:05:22;;;;;;;;;9.00;6.67;;;;;;;;5005015;28;45534;-73
2021/11/22 04:07:47;;;;;;;;;8.33;5.67;;;;;;;;5008590;28;45482;-73
2021/11/22 04:10:12;;;;;;;;;8.00;8.00;;;;;;;;5009378;28;45411;-75
2021/11/22 04:12:37;;;;;;;;;7.75;6.50;;;;;;;;5005810;28;45545;-75
2021/11/22 04:15:03;;;;;;;;;8.00;5.00;;;;;;;;5007736;28;45571;-75
2021/11/22 04:17:28;;;;;;;;;9.00;9.00;;;;;;;;5010017;28;45542;-74
2021/11/22 04:19:53;;;;;;;;;15.67;11.00;;;;;;;;5008381;28;45488;-75
2021/11/22 04:22:18;;;;;;;;;10.00;6.67;;;;;;;;5004155;28;45997;-75
2021/11/22 04:24:44;;;;;;;;;10.50;8.75;;;;;;;;5003131;28;45470;-74
2021/11/22 04:27:11;;;;;;;;;8.33;8.33;;;;;;;;5006403;28;45467;-74
2021/11/22 04:29:36;;;;;;;;;10.00;9.00;;;;;;;;5013503;28;45355;-75
2021/11/22 04:32:02;;;;;;;;;9.50;8.50;;;;;;;;5009369;28;46135;-75
2021/11/22 04:34:27;;;;;;;;;9.67;8.33;;;;;;;;5006305;28;45529;-75
2021/11/22 04:36:52;;;;;;;;;8.67;8.00;;;;;;;;5010166;28;45439;-74
2021/11/22 04:39:17;;;;;;;;;12.67;10.00;;;;;;;;5010997;28;45367;-74
2021/11/22 04:41:43;;;;;;;;;13.00;9.00;;;;;;;;5012743;28;45424;-74
2021/11/22 04:44:09;;;;;;;;;13.25;11.00;;;;;;;;5009425;28;45824;-75
2021/11/22 04:46:34;;;;;;;;;7.75;6.25;;;;;;;;5007939;28;45776;-75
2021/11/22 04:48:59;;;;;;;;;8.00;8.00;;;;;;;;5002281;28;45465;-75
2021/11/22 04:51:25;;;;;;;;;10.67;6.00;;;;;;;;5000996;28;45468;-75
2021/11/22 04:53:50;;;;;;;;;12.75;8.00;;;;;;;;5006546;28;45657;-75
2021/11/22 04:56:16;;;;;;;;;9.75;7.25;;;;;;;;5006599;28;45562;-74
2021/11/22 04:58:41;;;;;;;;;11.00;9.00;;;;;;;;5011578;28;45616;-75
2021/11/22 05:01:06;;;;;;;;;11.33;9.00;;;;;;;;5005505;28;45517;-74
2021/11/22 05:03:31;;;;;;;;;15.25;12.00;;;;;;;;5005037;28;45456;-75
2021/11/22 05:05:57;;;;;;;;;12.67;8.00;;;;;;;;5010658;28;50664;-75
2021/11/22 05:08:22;;;;;;;;;20.67;13.67;;;;;;;;5011222;28;45403;-75
2021/11/22 05:10:47;;;;;;;;;10.00;9.00;;;;;;;;5008240;28;46328;-75
2021/11/22 05:13:14;;;;;;;;;12.67;10.33;;;;;;;;5003132;28;45749;-73
2021/11/22 05:15:39;;;;;;;;;12.75;11.50;;;;;;;;4999807;28;45452;-75
2021/11/22 05:18:06;;;;;;;;;20.00;14.00;;;;;;;;5006647;28;45416;-74
2021/11/22 05:20:31;;;;;;;;;13.00;10.00;;;;;;;;5009084;28;45966;-74
2021/11/22 05:22:57;;;;;;;;;15.25;10.00;;;;;;;;5005500;28;45458;-74
2021/11/22 05:25:22;;;;;;;;;21.50;15.00;;;;;;;;5003432;28;45523;-75
2021/11/22 05:27:48;;;;;;;;;10.50;8.75;;;;;;;;5009775;28;45507;-74
2021/11/22 05:30:13;;;;;;;;;16.00;13.00;;;;;;;;5005202;28;46859;-74
2021/11/22 05:32:38;;;;;;;;;17.00;12.00;;;;;;;;5010794;28;45498;-74
2021/11/22 05:35:04;;;;;;;;;14.67;10.67;;;;;;;;4997603;28;45298;-74
2021/11/22 05:37:31;;;;;;;;;10.25;9.00;;;;;;;;5005508;28;45309;-74
2021/11/22 05:39:56;;;;;;;;;12.50;11.50;;;;;;;;5004441;28;46584;-74
2021/11/22 05:42:21;;;;;;;;;15.00;12.00;;;;;;;;4999000;28;45386;-74
2021/11/22 05:44:46;;;;;;;;;18.25;12.50;;;;;;;;5011612;28;45494;-74
2021/11/22 05:47:12;;;;;;;;;18.33;14.67;;;;;;;;5002895;28;45751;-74
2021/11/22 05:49:38;;;;;;;;;15.50;14.50;;;;;;;;5005624;28;45494;-74
2021/11/22 05:52:04;;;;;;;;;21.00;16.50;;;;;;;;5000289;28;46022;-74
2021/11/22 05:54:31;;;;;;;;;21.00;19.00;;;;;;;;5007169;28;45484;-75
2021/11/22 05:56:57;;;;;;;;;24.50;21.00;;;;;;;;4999699;28;45432;-74
2021/11/22 05:59:22;;;;;;;;;27.25;21.25;;;;;;;;5012288;28;45353;-74
2021/11/22 06:01:48;;;;;;;;;25.67;17.67;;;;;;;;5006471;28;45427;-74
2021/11/22 06:04:13;;;;;;;;;19.25;17.50;;;;;;;;5002358;28;45358;-74
2021/11/22 06:06:38;;;;;;;;;27.00;18.67;;;;;;;;5001624;28;45494;-74
2021/11/22 06:09:03;;;;;;;;;20.33;18.67;;;;;;;;5005751;28;45953;-75
2021/11/22 06:11:29;;;;;;;;;21.33;19.00;;;;;;;;5009602;28;45473;-74
2021/11/22 06:13:54;;;;;;;;;28.50;27.25;;;;;;;;5007443;28;45364;-75
2021/11/22 06:16:19;;;;;;;;;26.67;21.67;;;;;;;;5009140;28;45330;-74
2021/11/22 06:18:44;;;;;;;;;30.67;21.00;;;;;;;;4999439;28;47403;-74
2021/11/22 06:21:10;;;;;;;;;29.33;20.33;;;;;;;;5005878;28;45460;-74
2021/11/22 06:23:35;;;;;;;;;26.25;21.25;;;;;;;;5011636;28;45486;-74
2021/11/22 06:26:00;;;;;;;;;25.33;23.33;;;;;;;;5009341;28;45455;-74
2021/11/22 06:28:25;;;;;;;;;30.67;24.00;;;;;;;;5005718;28;46096;-75
2021/11/22 06:30:51;;;;;;;;;25.67;17.67;;;;;;;;5013752;28;45552;-74
2021/11/22 06:33:16;;;;;;;;;27.33;20.33;;;;;;;;5003316;28;45717;-74
2021/11/22 06:35:41;;;;;;;;;20.67;18.67;;;;;;;;5004549;28;45477;-74
2021/11/22 06:38:06;;;;;;;;;28.67;20.67;;;;;;;;5011379;28;45573;-74
2021/11/22 06:40:32;;;;;;;;;21.33;19.00;;;;;;;;5011693;28;45952;-74
2021/11/22 06:42:58;;;;;;;;;26.75;20.00;;;;;;;;5006975;28;45372;-74
2021/11/22 06:45:23;;;;;;;;;22.00;19.50;;;;;;;;5005098;28;45588;-74
2021/11/22 06:47:48;;;;;;;;;24.00;21.00;;;;;;;;5012634;28;46320;-75
2021/11/22 06:50:15;;;;;;;;;19.67;16.67;;;;;;;;5006505;28;45504;-73
2021/11/22 06:52:40;;;;;;;;;16.00;13.25;;;;;;;;5006574;28;45664;-73
2021/11/22 06:55:06;;;;;;;;;23.00;16.00;;;;;;;;5005138;28;46707;-72
2021/11/22 06:57:32;;;;;;;;;23.00;16.00;;;;;;;;5004407;28;46190;-73
2021/11/22 06:59:57;;;;;;;;;20.00;16.00;;;;;;;;5011124;28;45593;-72
2021/11/22 07:02:24;;;;;;;;;17.25;12.50;;;;;;;;5010518;28;45446;-72
2021/11/22 07:04:50;;;;;;;;;22.50;17.25;;;;;;;;5000432;28;45501;-72
2021/11/22 07:07:16;;;;;;;;;24.25;17.75;;;;;;;;5005126;28;45672;-74
2021/11/22 07:09:42;;;;;;;;;21.25;15.50;;;;;;;;5011875;28;45752;-72
2021/11/22 07:12:08;;;;;;;;;21.25;15.75;;;;;;;;5004483;28;45393;-73
2021/11/22 07:14:35;;;;;;;;;20.00;13.75;;;;;;;;5008843;28;46367;-73
2021/11/22 07:17:01;;;;;;;;;17.25;17.25;;;;;;;;5009817;28;46402;-72
2021/11/22 07:19:26;;;;;;;;;17.00;14.67;;;;;;;;5006537;28;45559;-72
2021/11/22 07:21:53;;;;;;;;;21.50;15.25;;;;;;;;5009178;28;46856;-73
2021/11/22 07:24:18;;;;;;;;;20.00;16.25;;;;;;;;5004705;28;45524;-72
2021/11/22 07:26:43;;;;;;;;;25.00;17.33;;;;;;;;5002802;28;46220;-73
2021/11/22 07:29:09;;;;;;;;;21.67;17.67;;;;;;;;5009825;28;45398;-73
2021/11/22 07:31:35;;;;;;;;;23.75;16.75;;;;;;;;5007029;28;45420;-72
2021/11/22 07:34:00;;;;;;;;;16.33;12.33;;;;;;;;5007861;28;45494;-73
2021/11/22 07:36:25;;;;;;;;;18.00;17.00;;;;;;;;5009052;28;45353;-73
2021/11/22 07:38:50;;;;;;;;;15.75;15.50;;;;;;;;5012269;28;45236;-72
2021/11/22 07:41:16;;;;;;;;;21.67;13.67;;;;;;;;5008410;28;45557;-72
2021/11/22 07:43:41;;;;;;;;;22.25;16.25;;;;;;;;5007786;28;45434;-73
2021/11/22 07:46:06;;;;;;;;;18.33;15.00;;;;;;;;5010751;28;45916;-73
2021/11/22 07:48:32;;;;;;;;;17.50;14.75;;;;;;;;5002847;28;45903;-72
2021/11/22 07:50:58;;;;;;;;;21.00;16.25;;;;;;;;5004320;28;45287;-73
2021/11/22 07:53:23;;;;;;;;;17.00;13.00;;;;;;;;5009450;28;45464;-72
2021/11/22 07:55:49;;;;;;;;;19.50;14.00;;;;;;;;5007449;28;46735;-72
2021/11/22 07:58:14;;;;;;;;;18.67;10.67;;;;;;;;5005995;28;45526;-72
2021/11/22 08:00:39;;;;;;;;;2.00;0.75;;;;;;;;5008012;28;45621;-73
2021/11/22 08:03:05;;;;;;;;;24.75;14.00;;;;;;;;5001566;28;45585;-73
2021/11/22 08:05:32;;;;;;;;;16.33;11.00;;;;;;;;4994099;28;46257;-72
2021/11/22 08:07:57;;;;;;;;;14.00;11.75;;;;;;;;5009314;28;45530;-73
2021/11/22 08:12:52;;;;;;;;;14.25;12.25;;;;;;;;5001492;28;45463;-72
2021/11/22 08:15:19;;;;;;;;;17.00;14.25;;;;;;;;5005911;28;46264;-72
2021/11/22 08:17:44;;;;;;;;;14.50;13.50;;;;;;;;5000656;28;46240;-72
2021/11/22 08:20:11;;;;;;;;;14.50;12.00;;;;;;;;5011933;28;45421;-72
2021/11/22 08:22:36;;;;;;;;;13.75;10.00;;;;;;;;5008039;28;45496;-73
2021/11/22 08:25:02;;;;;;;;;10.00;10.00;;;;;;;;5005331;28;45832;-73
2021/11/22 08:27:28;;;;;;;;;10.75;8.75;;;;;;;;5014133;28;45502;-72
2021/11/22 08:29:54;;;;;;;;;17.00;14.25;;;;;;;;5005970;28;45462;-73
2021/11/22 08:32:19;;;;;;;;;10.50;8.25;;;;;;;;5001470;28;45257;-72
2021/11/22 08:34:44;;;;;;;;;9.75;8.25;;;;;;;;5004263;28;46274;-73
2021/11/22 08:37:10;;;;;;;;;12.00;9.00;;;;;;;;5002374;28;45434;-72
2021/11/22 08:39:35;;;;;;;;;14.25;9.75;;;;;;;;5004595;28;45495;-73
2021/11/22 08:42:01;;;;;;;;;16.25;9.00;;;;;;;;4998304;28;45706;-73
2021/11/22 08:44:26;;;;;;;;;10.50;10.00;;;;;;;;5008072;28;46821;-73
2021/11/22 08:46:51;;;;;;;;;10.00;10.00;;;;;;;;5009835;28;45434;-72
2021/11/22 08:49:17;;;;;;;;;11.75;7.25;;;;;;;;5003783;28;45405;-72
2021/11/22 08:51:42;;;;;;;;;11.75;10.50;;;;;;;;4998636;28;45316;-73
2021/11/22 08:54:08;;;;;;;;;8.50;8.25;;;;;;;;5013730;28;46164;-73
2021/11/22 08:56:33;;;;;;;;;11.75;7.00;;;;;;;;5000137;28;45318;-73
2021/11/22 08:58:59;;;;;;;;;10.67;8.67;;;;;;;;4999923;28;45506;-72
2021/11/22 09:01:24;;;;;;;;;11.50;8.75;;;;;;;;5003575;28;45568;-73
2021/11/22 09:03:51;;;;;;;;;8.50;8.50;;;;;;;;5013469;28;45963;-73
2021/11/22 09:06:17;;;;;;;;;9.00;9.00;;;;;;;;4998869;28;45325;-73
2021/11/22 09:08:42;;;;;;;;;14.00;8.50;;;;;;;;5001516;28;45251;-72
2021/11/22 09:11:07;;;;;;;;;8.00;7.00;;;;;;;;5008249;28;45383;-72
2021/11/22 09:13:32;;;;;;;;;10.25;7.25;;;;;;;;5008611;28;46080;-73
2021/11/22 09:15:57;;;;;;;;;10.67;8.00;;;;;;;;5008316;28;45723;-72
2021/11/22 09:18:23;;;;;;;;;6.00;5.00;;;;;;;;4999312;28;45322;-73
2021/11/22 09:20:48;;;;;;;;;8.00;8.00;;;;;;;;4997921;28;45398;-72
2021/11/22 09:23:14;;;;;;;;;8.50;6.75;;;;;;;;4992906;28;47356;-73
2021/11/22 09:25:39;;;;;;;;;8.25;7.00;;;;;;;;5002381;28;45435;-73
2021/11/22 09:28:05;;;;;;;;;8.75;8.25;;;;;;;;4983840;28;45341;-72
2021/11/22 09:30:30;;;;;;;;;6.75;5.25;;;;;;;;4998111;28;45447;-73
2021/11/22 09:32:56;;;;;;;;;11.50;9.75;;;;;;;;4995475;28;47208;-73
2021/11/22 09:35:25;;;;;;;;;10.50;9.00;;;;;;;;5000660;28;45496;-73
2021/11/22 09:37:50;;;;;;;;;9.00;6.00;;;;;;;;4990260;28;45528;-72
2021/11/22 09:40:15;;;;;;;;;6.00;5.33;;;;;;;;5000682;28;45534;-73
2021/11/22 09:42:41;;;;;;;;;6.33;5.67;;;;;;;;5012754;28;45382;-73
2021/11/22 09:45:07;;;;;;;;;8.00;4.00;;;;;;;;5000604;28;45509;-73
2021/11/22 09:47:33;;;;;;;;;9.50;7.50;;;;;;;;4999178;28;45439;-72
2021/11/22 09:49:58;;;;;;;;;6.25;5.75;;;;;;;;5002846;28;45433;-73
2021/11/22 09:52:24;;;;;;;;;7.75;6.00;;;;;;;;5005427;28;45317;-73
2021/11/22 09:54:49;;;;;;;;;7.75;6.50;;;;;;;;5005890;28;45462;-73
2021/11/22 09:57:15;;;;;;;;;8.25;7.00;;;;;;;;5000900;28;45538;-72
2021/11/22 09:59:41;;;;;;;;;2.75;0.00;;;;;;;;5001723;28;45340;-72
2021/11/22 10:02:06;;;;;;;;;7.75;7.00;;;;;;;;5005302;28;45345;-72
2021/11/22 10:04:32;;;;;;;;;7.50;6.00;;;;;;;;5005200;28;45419;-73
2021/11/22 10:06:57;;;;;;;;;7.00;5.00;;;;;;;;5005445;28;45472;-72
2021/11/22 10:09:35;;;;;;;;;7.75;7.75;;;;;;;;5002158;28;46787;-72
2021/11/22 10:12:09;;;;;;;;;3.25;3.25;;;;;;;;5010747;28;47095;-72
2021/11/22 10:14:55;;;;;;;;;8.50;5.25;;;;;;;;5002914;28;45816;-72
2021/11/22 10:17:39;;;;;;;;;4.75;4.75;;;;;;;;5002051;28;45466;-72
2021/11/22 10:20:10;;;;;;;;;8.25;5.00;;;;;;;;5008988;28;45661;-72
2021/11/22 10:22:52;;;;;;;;;6.25;5.00;;;;;;;;5001964;28;46054;-72
2021/11/22 10:25:19;;;;;;;;;11.00;6.00;;;;;;;;5005007;28;45473;-73
2021/11/22 10:27:44;;;;;;;;;10.25;7.00;;;;;;;;5015822;28;47098;-72
2021/11/22 10:30:18;;;;;;;;;3.00;3.00;;;;;;;;5000758;28;45488;-72
2021/11/22 10:32:44;;;;;;;;;8.50;5.25;;;;;;;;5012815;28;46255;-72
2021/11/22 10:35:13;;;;;;;;;10.00;5.00;;;;;;;;5004675;28;45486;-72
2021/11/22 10:37:56;;;;;;;;;7.00;5.00;;;;;;;;5005017;28;45325;-73
2021/11/22 10:40:22;;;;;;;;;9.75;7.00;;;;;;;;5004744;28;45407;-72
2021/11/22 10:42:47;;;;;;;;;8.50;6.50;;;;;;;;5014419;28;45410;-72
2021/11/22 10:45:32;;;;;;;;;7.33;7.00;;;;;;;;5001621;28;45623;-72
2021/11/22 10:48:20;;;;;;;;;7.25;6.50;;;;;;;;5013591;28;45390;-72
2021/11/22 10:50:49;;;;;;;;;11.50;8.25;;;;;;;;5011413;28;45572;-73
2021/11/22 10:53:23;;;;;;;;;10.25;5.00;;;;;;;;5003589;28;46265;-72
2021/11/22 10:55:48;;;;;;;;;9.00;8.00;;;;;;;;5004249;28;45877;-73
2021/11/22 10:58:29;;;;;;;;;8.33;5.33;;;;;;;;5004402;28;45269;-73
2021/11/22 11:00:54;;;;;;;;;13.50;8.25;;;;;;;;5004379;28;45529;-73
2021/11/22 11:03:19;;;;;;;;;6.67;6.67;;;;;;;;5000757;28;46342;-73
2021/11/22 11:05:55;;;;;;;;;10.00;8.33;;;;;;;;5015395;28;45530;-73
2021/11/22 11:08:20;;;;;;;;;8.75;7.00;;;;;;;;4998765;28;45364;-73
2021/11/22 11:10:50;;;;;;;;;9.00;6.50;;;;;;;;5004473;28;45561;-73
2021/11/22 11:13:15;;;;;;;;;9.75;8.25;;;;;;;;5002546;28;47147;-73
2021/11/22 11:15:42;;;;;;;;;7.00;7.00;;;;;;;;5003445;28;45516;-73
2021/11/22 11:18:21;;;;;;;;;9.75;8.25;;;;;;;;4999467;28;45356;-72
2021/11/22 11:20:49;;;;;;;;;9.25;7.50;;;;;;;;5012553;28;45403;-72
2021/11/22 11:23:15;;;;;;;;;7.25;7.25;;;;;;;;5002141;28;46124;-73
2021/11/22 11:25:40;;;;;;;;;7.75;6.00;;;;;;;;5003447;28;45340;-72
2021/11/22 11:28:05;;;;;;;;;12.75;8.50;;;;;;;;5002478;28;45302;-72
2021/11/22 11:30:30;;;;;;;;;9.00;6.50;;;;;;;;5014920;28;45289;-73
2021/11/22 11:32:57;;;;;;;;;6.00;6.00;;;;;;;;4999115;28;45319;-72
2021/11/22 11:35:23;;;;;;;;;8.75;8.00;;;;;;;;5002173;28;45440;-72
2021/11/22 11:37:56;;;;;;;;;9.75;8.00;;;;;;;;5003846;28;45465;-73
2021/11/22 11:40:24;;;;;;;;;7.25;6.75;;;;;;;;5002122;28;45554;-73
2021/11/22 11:43:04;;;;;;;;;8.75;7.00;;;;;;;;5005886;28;45976;-73
2021/11/22 11:45:30;;;;;;;;;11.50;8.00;;;;;;;;5000139;28;45414;-73
2021/11/22 11:48:13;;;;;;;;;8.00;7.50;;;;;;;;4999391;28;45420;-72
2021/11/22 11:50:43;;;;;;;;;12.25;9.00;;;;;;;;5000756;28;45353;-72
2021/11/22 11:53:10;;;;;;;;;10.00;8.00;;;;;;;;5002525;28;47346;-73
2021/11/22 11:55:36;;;;;;;;;17.25;8.00;;;;;;;;5003629;28;45661;-72
2021/11/22 11:58:20;;;;;;;;;15.50;9.50;;;;;;;;5003581;28;45321;-73
2021/11/22 12:00:53;;;;;;;;;14.25;10.25;;;;;;;;5003753;28;45403;-73
2021/11/22 12:03:18;;;;;;;;;12.50;9.75;;;;;;;;4999688;28;46132;-73
2021/11/22 12:05:45;;;;;;;;;10.25;9.00;;;;;;;;4997036;28;45447;-73
2021/11/22 12:08:29;;;;;;;;;8.50;7.50;;;;;;;;5009804;28;45455;-73
2021/11/22 12:10:56;;;;;;;;;11.50;8.00;;;;;;;;4997270;28;45609;-73
2021/11/22 12:13:21;;;;;;;;;14.25;11.50;;;;;;;;5009090;28;45415;-72
2021/11/22 12:15:49;;;;;;;;;12.25;10.00;;;;;;;;4997842;28;45473;-73
2021/11/22 12:18:29;;;;;;;;;14.75;10.50;;;;;;;;4999025;28;45470;-72
2021/11/22 12:21:18;;;;;;;;;9.50;7.50;;;;;;;;4998759;28;45447;-73
2021/11/22 12:23:48;;;;;;;;;11.00;10.00;;;;;;;;4997866;28;47348;-72
2021/11/22 12:26:15;;;;;;;;;7.75;5.25;;;;;;;;5010113;28;45332;-73
2021/11/22 12:28:42;;;;;;;;;16.25;9.50;;;;;;;;5006941;28;45603;-72
2021/11/22 12:31:09;;;;;;;;;8.75;6.75;;;;;;;;5003169;28;45518;-72
2021/11/22 12:33:52;;;;;;;;;13.75;8.50;;;;;;;;5001348;28;45999;-73
2021/11/22 12:36:20;;;;;;;;;15.25;7.75;;;;;;;;5010756;28;45577;-73
2021/11/22 12:38:46;;;;;;;;;13.25;9.00;;;;;;;;5011604;28;45309;-72
2021/11/22 12:41:20;;;;;;;;;12.50;11.25;;;;;;;;5002293;28;45455;-72
2021/11/22 12:43:47;;;;;;;;;15.25;10.00;;;;;;;;5005684;28;45410;-72
2021/11/22 12:46:16;;;;;;;;;14.00;10.75;;;;;;;;5000630;28;45359;-72
2021/11/22 12:48:43;;;;;;;;;11.00;9.50;;;;;;;;4998894;28;45442;-74
2021/11/22 12:51:10;;;;;;;;;11.75;9.00;;;;;;;;5013238;28;45331;-72
2021/11/22 12:53:36;;;;;;;;;13.00;9.75;;;;;;;;4999656;28;45289;-73
2021/11/22 12:56:02;;;;;;;;;12.25;10.00;;;;;;;;5002980;28;45827;-72
2021/11/22 12:58:29;;;;;;;;;17.50;9.00;;;;;;;;5002857;28;45399;-72
2021/11/22 13:00:56;;;;;;;;;12.75;8.75;;;;;;;;5002485;28;45508;-72
2021/11/22 13:03:22;;;;;;;;;15.00;12.25;;;;;;;;4999659;28;46463;-72
2021/11/22 13:05:49;;;;;;;;;10.50;9.00;;;;;;;;4997591;28;46111;-72
2021/11/22 13:08:34;;;;;;;;;15.25;10.25;;;;;;;;5001892;28;45534;-72
2021/11/22 13:11:22;;;;;;;;;14.75;9.00;;;;;;;;5000250;28;45406;-72
2021/11/22 13:13:56;;;;;;;;;15.25;10.00;;;;;;;;5004979;28;46254;-72
2021/11/22 13:16:23;;;;;;;;;16.00;12.25;;;;;;;;5003181;28;45506;-73
2021/11/22 13:18:53;;;;;;;;;8.00;5.50;;;;;;;;5009439;28;45568;-73
2021/11/22 13:21:24;;;;;;;;;8.50;7.00;;;;;;;;5013260;28;45341;-72
2021/11/22 13:23:50;;;;;;;;;12.00;10.00;;;;;;;;4998742;28;46140;-72
2021/11/22 13:26:21;;;;;;;;;18.50;12.25;;;;;;;;5013243;28;45424;-72
2021/11/22 13:28:54;;;;;;;;;21.00;11.25;;;;;;;;5008670;28;45368;-72
2021/11/22 13:31:20;;;;;;;;;15.25;11.00;;;;;;;;5005667;28;45478;-72
2021/11/22 13:33:47;;;;;;;;;15.00;13.00;;;;;;;;5005650;28;45363;-72
2021/11/22 13:36:13;;;;;;;;;16.25;12.25;;;;;;;;5001627;28;45688;-73
2021/11/22 13:38:40;;;;;;;;;14.75;10.00;;;;;;;;5000778;28;45490;-72
2021/11/22 13:41:13;;;;;;;;;8.75;7.75;;;;;;;;5003002;28;45705;-73
2021/11/22 13:43:39;;;;;;;;;13.00;10.50;;;;;;;;5005503;28;45505;-73
2021/11/22 13:46:06;;;;;;;;;9.75;9.00;;;;;;;;5004835;28;45888;-73
2021/11/22 13:48:45;;;;;;;;;10.25;10.25;;;;;;;;5016736;28;45656;-73
2021/11/22 13:51:12;;;;;;;;;14.25;12.00;;;;;;;;5001198;28;45277;-72
2021/11/22 13:53:37;;;;;;;;;13.50;9.50;;;;;;;;5001674;28;47968;-73
2021/11/22 13:56:02;;;;;;;;;13.00;8.00;;;;;;;;5006160;28;45490;-73
2021/11/22 13:58:27;;;;;;;;;13.25;13.00;;;;;;;;5005524;28;45472;-73
2021/11/22 14:00:54;;;;;;;;;13.67;13.00;;;;;;;;5005577;28;45544;-72
2021/11/22 14:03:20;;;;;;;;;16.00;11.00;;;;;;;;5001204;28;46095;-72
2021/11/22 14:05:45;;;;;;;;;15.25;13.50;;;;;;;;5013576;28;45952;-72
2021/11/22 14:08:13;;;;;;;;;15.25;13.00;;;;;;;;5005068;28;45508;-73
2021/11/22 14:10:40;;;;;;;;;18.25;15.25;;;;;;;;5005589;28;45400;-72
2021/11/22 14:13:16;;;;;;;;;17.50;14.00;;;;;;;;5006543;28;47049;-73
2021/11/22 14:15:44;;;;;;;;;15.25;12.00;;;;;;;;5004471;28;45702;-73
2021/11/22 14:18:16;;;;;;;;;13.75;12.50;;;;;;;;5000317;28;45407;-72
2021/11/22 14:20:48;;;;;;;;;11.50;9.00;;;;;;;;5013722;28;45385;-72
2021/11/22 14:23:14;;;;;;;;;17.25;13.00;;;;;;;;5002995;28;45956;-73
2021/11/22 14:25:39;;;;;;;;;16.25;11.75;;;;;;;;5005207;28;45460;-73
2021/11/22 14:28:12;;;;;;;;;14.33;13.00;;;;;;;;5004865;28;45276;-72
2021/11/22 14:30:38;;;;;;;;;17.75;13.50;;;;;;;;5004116;28;45399;-72
2021/11/22 14:33:13;;;;;;;;;18.25;10.25;;;;;;;;4999761;28;45395;-72